Flight Track Log - Related Links

Times and Time Zones

All times are in EDT time to prevent confusion due to time zone crossing. See the SWA2004 flight status page for this flight to view local times or setup timezone preferences in your user account.

Time Position Orientation Groundspeed Altitude Reporting Facility
EDT Latitude Longitude Course Direction KTS MPH feet Rate Location/Type
Sat 11:43:06 AM 37.7333 -122.2500 310° West 164 189 1,100  Level Northern Cal TRACON
Sat 11:44:12 AM 37.7667 -122.3000 310° West 227 261 3,200 2,143 Climbing Northern Cal TRACON
Sat 11:45:54 AM 37.8389 -122.2250 39° Northeast 247 284 7,100 2,209 Climbing Oakland Center
Sat 11:46:55 AM 37.8558 -122.1347 77° East 261 300 9,200 2,115 Climbing Oakland Center
Sat 11:47:56 AM 37.8767 -122.0322 76° East 294 338 11,400 2,361 Climbing Oakland Center
Sat 11:48:57 AM 37.8994 -121.9142 76° East 340 391 14,000 2,488 Climbing Oakland Center
Sat 11:49:59 AM 37.9233 -121.7944 76° East 350 403 16,500 2,341 Climbing Oakland Center
Sat 11:51:00 AM 37.9469 -121.6694 76° East 364 419 18,800 2,459 Climbing Oakland Center
Sat 11:52:01 AM 37.9778 -121.5103 76° East 386 444 21,500 2,262 Climbing Oakland Center
Sat 11:53:02 AM 38.0019 -121.3850 76° East 396 456 23,400 1,756 Climbing Oakland Center
Sat 11:54:04 AM 38.0286 -121.2450 76° East 408 470 25,100 1,659 Climbing Oakland Center
Sat 11:55:05 AM 38.0553 -121.0992 77° East 424 488 26,800 1,672 Climbing Oakland Center
Sat 11:56:06 AM 38.0819 -120.9503 77° East 434 499 28,500 1,721 Climbing Oakland Center
Sat 11:57:07 AM 38.1064 -120.7664 80° East 443 510 30,300 1,610 Climbing Oakland Center
Sat 11:58:09 AM 38.1269 -120.6103 80° East 450 518 31,800 1,415 Climbing Oakland Center
Sat 11:59:10 AM 38.1483 -120.4522 80° East 455 524 33,200 1,279 Climbing Oakland Center
Sat 12:00:11 PM 38.1689 -120.2922 81° East 460 529 34,400 1,131 Climbing Oakland Center
Sat 12:01:12 PM 38.1906 -120.1308 80° East 464 534 35,500 1,171 Climbing Oakland Center
Sat 12:02:14 PM 38.2106 -119.9683 81° East 466 536 36,800 683 Climbing Oakland Center
Sat 12:03:15 PM 38.2311 -119.8061 81° East 467 537 36,900 49 Climbing Oakland Center
Sat 12:04:16 PM 38.2525 -119.6444 80° East 466 536 36,900  Level Oakland Center
Sat 12:05:18 PM 38.2750 -119.4578 81° East 466 536 36,900  Level Oakland Center
Sat 12:06:19 PM 38.2944 -119.2967 81° East 463 533 36,900  Level Oakland Center
Sat 12:07:20 PM 38.3139 -119.1333 81° East 468 539 36,900  Level Oakland Center
Sat 12:08:22 PM 38.3333 -118.9719 81° East 464 534 36,900  Level Oakland Center
Sat 12:09:23 PM 38.3531 -118.8103 81° East 464 534 36,900  Level Oakland Center
Sat 12:10:24 PM 38.3722 -118.6469 81° East 467 537 36,900  Level Oakland Center
Sat 12:11:26 PM 38.3789 -118.4536 87° East 459 528 36,900  Level Oakland Center
Sat 12:12:27 PM 38.3756 -118.2919 91° East 458 527 36,900  Level Oakland Center
Sat 12:13:28 PM 38.3722 -118.1314 91° East 456 525 36,900  Level Oakland Center
Sat 12:14:30 PM 38.3714 -117.9828 90° East 456 525 36,900  Level Oakland Center
Sat 12:15:31 PM 38.3681 -117.8217 91° East 456 525 36,900  Level Oakland Center
Sat 12:16:32 PM 38.3642 -117.6594 92° East 457 526 36,900  Level Oakland Center
Sat 12:17:06 PM 38.3625 -117.5636 91° East 453 521 36,900  Level Salt Lake Center
Sat 12:18:08 PM 38.3583 -117.4003 92° East 457 526 36,900  Level Salt Lake Center
Sat 12:19:10 PM 38.3547 -117.2364 92° East 456 525 36,900  Level Salt Lake Center
Sat 12:20:12 PM 38.3497 -117.0722 92° East 456 525 36,900  Level Salt Lake Center
Sat 12:21:14 PM 38.3447 -116.8756 92° East 458 527 36,900  Level Salt Lake Center
Sat 12:22:16 PM 38.3394 -116.7122 92° East 458 527 36,900  Level Salt Lake Center
Sat 12:23:18 PM 38.3353 -116.5492 92° East 458 527 36,900  Level Salt Lake Center
Sat 12:24:20 PM 38.3297 -116.3861 92° East 460 529 36,900  Level Salt Lake Center
Sat 12:25:22 PM 38.3247 -116.2219 92° East 464 534 36,900  Level Salt Lake Center
Sat 12:26:24 PM 38.3186 -116.0597 93° East 461 531 36,900  Level Salt Lake Center
Sat 12:27:26 PM 38.3139 -115.8950 92° East 465 535 36,900  Level Salt Lake Center
Sat 12:28:28 PM 38.3075 -115.6989 92° East 462 532 36,900  Level Salt Lake Center
Sat 12:29:30 PM 38.3006 -115.5342 93° East 465 535 36,900  Level Salt Lake Center
Sat 12:30:32 PM 38.2931 -115.3694 93° East 467 537 36,900  Level Salt Lake Center
Sat 12:31:34 PM 38.2889 -115.2203 92° East 462 532 36,900  Level Salt Lake Center
Sat 12:32:36 PM 38.2794 -115.0211 93° East 469 540 36,900 48 Level Salt Lake Center
Sat 12:33:38 PM 38.2739 -114.8569 92° East 467 537 37,000 48 Climbing Salt Lake Center
Sat 12:34:40 PM 38.2661 -114.6931 93° East 465 535 37,000  Level Salt Lake Center
Sat 12:35:42 PM 38.2575 -114.5264 94° East 472 543 37,000  Level Salt Lake Center
Sat 12:36:45 PM 38.2469 -114.3608 95° East 470 541 37,000  Level Salt Lake Center
Sat 12:37:47 PM 38.2119 -114.2042 106° East 462 532 37,000  Level Salt Lake Center
Sat 12:38:49 PM 38.1717 -114.0144 105° East 464 534 37,000  Level Salt Lake Center
Sat 12:39:51 PM 38.1378 -113.8553 105° East 466 536 37,000  Level Salt Lake Center
Sat 12:40:53 PM 38.1047 -113.6978 105° East 463 533 37,000  Level Salt Lake Center
Sat 12:41:55 PM 38.0703 -113.5372 105° East 469 540 37,000  Level Salt Lake Center
Sat 12:42:57 PM 38.0353 -113.3769 105° East 471 542 37,000  Level Salt Lake Center
Sat 12:43:59 PM 38.0003 -113.2181 106° East 469 540 37,000  Level Salt Lake Center
Sat 12:45:01 PM 37.9589 -113.0250 105° East 469 540 37,000  Level Salt Lake Center
Sat 12:46:03 PM 37.9231 -112.8631 106° East 473 544 37,000  Level Salt Lake Center
Sat 12:47:05 PM 37.8864 -112.7006 106° East 474 545 37,000  Level Salt Lake Center
Sat 12:48:07 PM 37.8497 -112.5389 106° East 473 544 37,000  Level Salt Lake Center
Sat 12:49:09 PM 37.8131 -112.3789 106° East 472 543 37,000  Level Salt Lake Center
Sat 12:50:11 PM 37.7764 -112.2203 106° East 470 541 37,000  Level Salt Lake Center
Sat 12:51:13 PM 37.7394 -112.0611 106° East 471 542 37,000  Level Salt Lake Center
Sat 12:52:15 PM 37.7031 -111.9028 106° East 470 541 37,000  Level Salt Lake Center
Sat 12:53:17 PM 37.6578 -111.7133 107° East 469 540 37,000  Level Salt Lake Center
Sat 12:54:19 PM 37.6206 -111.5561 107° East 468 539 37,000  Level Salt Lake Center
Sat 12:55:10 PM 37.5911 -111.4286 106° East 473 544 37,000  Level Denver Center
Sat 12:56:12 PM 37.5533 -111.2711 107° East 470 541 37,000  Level Denver Center
Sat 12:57:15 PM 37.5164 -111.1133 106° East 471 542 37,000  Level Denver Center
Sat 12:58:17 PM 37.4786 -110.9558 107° East 471 542 37,000  Level Denver Center
Sat 12:59:19 PM 37.4322 -110.7678 107° East 470 541 37,000  Level Denver Center
Sat 01:00:21 PM 37.3942 -110.6100 107° East 473 544 37,000  Level Denver Center
Sat 01:01:23 PM 37.3558 -110.4531 107° East 471 542 37,000  Level Denver Center
Sat 01:02:25 PM 37.3161 -110.2953 108° East 475 547 37,000  Level Denver Center
Sat 01:03:27 PM 37.2739 -110.1250 107° East 474 545 37,000  Level Denver Center
Sat 01:04:29 PM 37.2361 -109.9728 107° East 476 548 37,000  Level Denver Center
Sat 01:05:31 PM 37.1919 -109.7953 107° East 476 548 37,000  Level Denver Center
Sat 01:06:33 PM 37.1528 -109.6428 108° East 480 552 37,000  Level Denver Center
Sat 01:07:35 PM 37.1067 -109.4642 108° East 481 554 37,000  Level Denver Center
Sat 01:08:37 PM 37.0681 -109.3117 108° East 480 552 37,000  Level Denver Center
Sat 01:09:39 PM 36.9914 -109.1522 121° Southeast 479 551 37,000  Level Denver Center
Sat 01:10:41 PM 36.9194 -109.0217 125° Southeast 475 547 37,000  Level Denver Center
Sat 01:11:43 PM 36.8364 -108.8672 124° Southeast 478 550 37,000 -97 Level Denver Center
Sat 01:12:45 PM 36.7647 -108.7369 124° Southeast 474 545 36,800 -629 Descending Denver Center
Sat 01:13:47 PM 36.6794 -108.5794 124° Southeast 484 557 35,700 -1,113 Descending Denver Center
Sat 01:14:49 PM 36.6069 -108.4489 125° Southeast 480 552 34,500 -1,152 Descending Denver Center
Sat 01:15:52 PM 36.5364 -108.3236 125° Southeast 463 533 33,300 -1,152 Descending Denver Center
Sat 01:16:54 PM 36.4556 -108.1781 125° Southeast 456 525 32,100 -1,016 Descending Denver Center
Sat 01:17:56 PM 36.3861 -108.0533 125° Southeast 456 525 31,200 -968 Descending Denver Center
Sat 01:18:58 PM 36.3047 -107.9078 125° Southeast 457 526 30,100 -984 Descending Denver Center
Sat 01:19:58 PM 36.2336 -107.7847 126° Southeast 458 527 29,200 -541 Descending Albuquerque Center
Sat 01:21:00 PM 36.1653 -107.6619 125° Southeast 454 522 29,000 -97 Descending Albuquerque Center
Sat 01:22:02 PM 36.0656 -107.5525 138° Southeast 435 501 29,000 -242 Level Albuquerque Center
Sat 01:23:04 PM 35.9628 -107.4889 153° Southeast 431 496 28,500 -1,659 Descending Albuquerque Center
Sat 01:24:05 PM 35.8331 -107.4258 158° South 441 507 25,600 -2,537 Descending Albuquerque Center
Sat 01:25:07 PM 35.7272 -107.3822 162° South 426 490 23,300 -2,419 Descending Albuquerque Center
Sat 01:26:09 PM 35.6231 -107.2964 146° Southeast 407 468 20,600 -2,419 Descending Albuquerque Center
Sat 01:27:11 PM 35.5378 -107.2247 146° Southeast 392 451 18,300 -2,098 Descending Albuquerque Center
Sat 01:28:12 PM 35.4553 -107.1533 145° Southeast 380 437 16,300 -2,146 Descending Albuquerque Center
Sat 01:29:14 PM 35.3719 -107.0853 146° Southeast 362 417 13,900 -2,323 Descending Albuquerque Center
Sat 01:31:00 PM 35.1957 -106.9364 145° Southeast  Level FlightAware Approximate
Sat 01:38:00 PM 35.0402 -106.6092 90° East  Level Estimated
Sat 01:39:00 PM 35.0402 -106.6092 90° East  Level Estimated
Sat 01:40:00 PM 35.0402 -106.6092 90° East  Level Estimated
Sat 01:41:00 PM 35.0402 -106.6092 90° East  Level Estimated
Sat 01:42:00 PM 35.0402 -106.6092 90° East  Level Estimated
Sat 01:43:00 PM 35.0402 -106.6092 90° East  Level Estimated
Sat 01:44:00 PM 35.0402 -106.6092 90° East  Level Estimated
Sat 01:45:00 PM 35.0402 -106.6092 90° East  Level Estimated

Login

Don't have an account? Register now (free) for customized features, flight alerts, and more!